sensor_id;sensor_type;location;lat;lon;timestamp;P1;durP1;ratioP1;P2;durP2;ratioP2
43986;SDS011;29650;47.378;8.300;2023-06-26T00:00:26;7.03;;;4.82;;
43986;SDS011;29650;47.378;8.300;2023-06-26T00:02:53;5.93;;;4.68;;
43986;SDS011;29650;47.378;8.300;2023-06-26T00:05:20;10.00;;;4.25;;
43986;SDS011;29650;47.378;8.300;2023-06-26T00:07:46;6.07;;;4.97;;
43986;SDS011;29650;47.378;8.300;2023-06-26T00:10:13;6.00;;;4.15;;
43986;SDS011;29650;47.378;8.300;2023-06-26T00:12:42;6.32;;;4.72;;
43986;SDS011;29650;47.378;8.300;2023-06-26T00:15:09;4.95;;;4.45;;
43986;SDS011;29650;47.378;8.300;2023-06-26T00:17:37;8.02;;;5.20;;
43986;SDS011;29650;47.378;8.300;2023-06-26T00:20:04;10.95;;;5.90;;
43986;SDS011;29650;47.378;8.300;2023-06-26T00:22:32;7.22;;;5.43;;
43986;SDS011;29650;47.378;8.300;2023-06-26T00:24:59;5.65;;;4.68;;
43986;SDS011;29650;47.378;8.300;2023-06-26T00:27:26;8.07;;;5.10;;
43986;SDS011;29650;47.378;8.300;2023-06-26T00:29:54;8.52;;;6.10;;
43986;SDS011;29650;47.378;8.300;2023-06-26T00:32:21;8.40;;;5.72;;
43986;SDS011;29650;47.378;8.300;2023-06-26T00:34:48;8.60;;;6.28;;
43986;SDS011;29650;47.378;8.300;2023-06-26T00:37:15;8.68;;;5.68;;
43986;SDS011;29650;47.378;8.300;2023-06-26T00:39:42;9.95;;;5.63;;
43986;SDS011;29650;47.378;8.300;2023-06-26T00:42:09;7.55;;;5.43;;
43986;SDS011;29650;47.378;8.300;2023-06-26T00:44:36;8.63;;;4.38;;
43986;SDS011;29650;47.378;8.300;2023-06-26T00:47:04;6.30;;;4.75;;
43986;SDS011;29650;47.378;8.300;2023-06-26T00:49:31;7.30;;;5.53;;
43986;SDS011;29650;47.378;8.300;2023-06-26T00:51:58;7.70;;;5.20;;
43986;SDS011;29650;47.378;8.300;2023-06-26T00:54:26;7.40;;;4.97;;
43986;SDS011;29650;47.378;8.300;2023-06-26T00:56:53;6.43;;;4.15;;
43986;SDS011;29650;47.378;8.300;2023-06-26T00:59:20;7.03;;;4.70;;
43986;SDS011;29650;47.378;8.300;2023-06-26T01:01:47;9.60;;;4.70;;
43986;SDS011;29650;47.378;8.300;2023-06-26T01:04:15;6.03;;;4.90;;
43986;SDS011;29650;47.378;8.300;2023-06-26T01:06:43;5.75;;;4.45;;
43986;SDS011;29650;47.378;8.300;2023-06-26T01:09:14;6.72;;;4.38;;
43986;SDS011;29650;47.378;8.300;2023-06-26T01:11:42;5.53;;;4.82;;
43986;SDS011;29650;47.378;8.300;2023-06-26T01:14:09;7.03;;;4.78;;
43986;SDS011;29650;47.378;8.300;2023-06-26T01:16:36;6.32;;;4.75;;
43986;SDS011;29650;47.378;8.300;2023-06-26T01:19:05;7.60;;;4.65;;
43986;SDS011;29650;47.378;8.300;2023-06-26T01:21:40;5.93;;;4.68;;
43986;SDS011;29650;47.378;8.300;2023-06-26T01:24:12;6.05;;;4.88;;
43986;SDS011;29650;47.378;8.300;2023-06-26T01:26:46;11.13;;;5.50;;
43986;SDS011;29650;47.378;8.300;2023-06-26T01:29:16;8.65;;;5.07;;
43986;SDS011;29650;47.378;8.300;2023-06-26T01:31:44;7.00;;;5.17;;
43986;SDS011;29650;47.378;8.300;2023-06-26T01:34:14;13.63;;;5.70;;
43986;SDS011;29650;47.378;8.300;2023-06-26T01:36:43;8.73;;;5.38;;
43986;SDS011;29650;47.378;8.300;2023-06-26T01:39:12;6.47;;;5.00;;
43986;SDS011;29650;47.378;8.300;2023-06-26T01:41:41;10.00;;;4.72;;
43986;SDS011;29650;47.378;8.300;2023-06-26T01:44:16;7.75;;;4.63;;
43986;SDS011;29650;47.378;8.300;2023-06-26T01:46:52;8.80;;;5.28;;
43986;SDS011;29650;47.378;8.300;2023-06-26T01:49:26;7.05;;;4.72;;
43986;SDS011;29650;47.378;8.300;2023-06-26T01:51:58;6.47;;;4.43;;
43986;SDS011;29650;47.378;8.300;2023-06-26T01:54:33;6.03;;;4.80;;
43986;SDS011;29650;47.378;8.300;2023-06-26T01:57:05;7.30;;;5.30;;
43986;SDS011;29650;47.378;8.300;2023-06-26T01:59:37;8.57;;;5.38;;
43986;SDS011;29650;47.378;8.300;2023-06-26T02:02:06;8.55;;;4.93;;
43986;SDS011;29650;47.378;8.300;2023-06-26T02:04:34;11.10;;;5.78;;
43986;SDS011;29650;47.378;8.300;2023-06-26T02:07:02;12.57;;;5.30;;
43986;SDS011;29650;47.378;8.300;2023-06-26T02:09:29;6.95;;;5.03;;
43986;SDS011;29650;47.378;8.300;2023-06-26T02:11:56;6.82;;;5.60;;
43986;SDS011;29650;47.378;8.300;2023-06-26T02:14:23;8.77;;;5.75;;
43986;SDS011;29650;47.378;8.300;2023-06-26T02:16:51;8.80;;;5.63;;
43986;SDS011;29650;47.378;8.300;2023-06-26T02:19:18;8.57;;;5.45;;
43986;SDS011;29650;47.378;8.300;2023-06-26T02:21:46;7.75;;;5.60;;
43986;SDS011;29650;47.378;8.300;2023-06-26T02:24:14;10.07;;;7.00;;
43986;SDS011;29650;47.378;8.300;2023-06-26T02:26:41;10.68;;;6.13;;
43986;SDS011;29650;47.378;8.300;2023-06-26T02:29:08;7.95;;;5.35;;
43986;SDS011;29650;47.378;8.300;2023-06-26T02:31:35;7.72;;;4.97;;
43986;SDS011;29650;47.378;8.300;2023-06-26T02:34:03;11.48;;;5.97;;
43986;SDS011;29650;47.378;8.300;2023-06-26T02:36:30;7.73;;;5.53;;
43986;SDS011;29650;47.378;8.300;2023-06-26T02:38:57;6.50;;;4.90;;
43986;SDS011;29650;47.378;8.300;2023-06-26T02:41:24;9.80;;;5.32;;
43986;SDS011;29650;47.378;8.300;2023-06-26T02:43:51;6.40;;;5.78;;
43986;SDS011;29650;47.378;8.300;2023-06-26T02:46:18;7.57;;;6.28;;
43986;SDS011;29650;47.378;8.300;2023-06-26T02:48:45;10.55;;;6.10;;
43986;SDS011;29650;47.378;8.300;2023-06-26T02:51:13;11.07;;;5.93;;
43986;SDS011;29650;47.378;8.300;2023-06-26T02:53:40;7.65;;;5.55;;
43986;SDS011;29650;47.378;8.300;2023-06-26T02:56:07;8.00;;;6.20;;
43986;SDS011;29650;47.378;8.300;2023-06-26T02:58:34;8.90;;;6.28;;
43986;SDS011;29650;47.378;8.300;2023-06-26T03:01:01;7.38;;;5.18;;
43986;SDS011;29650;47.378;8.300;2023-06-26T03:03:28;11.07;;;5.57;;
43986;SDS011;29650;47.378;8.300;2023-06-26T03:05:55;8.48;;;6.00;;
43986;SDS011;29650;47.378;8.300;2023-06-26T03:08:23;7.40;;;5.55;;
43986;SDS011;29650;47.378;8.300;2023-06-26T03:10:50;7.55;;;5.70;;
43986;SDS011;29650;47.378;8.300;2023-06-26T03:13:17;10.25;;;5.32;;
43986;SDS011;29650;47.378;8.300;2023-06-26T03:15:44;9.80;;;6.07;;
43986;SDS011;29650;47.378;8.300;2023-06-26T03:18:11;8.10;;;6.00;;
43986;SDS011;29650;47.378;8.300;2023-06-26T03:20:38;12.68;;;5.78;;
43986;SDS011;29650;47.378;8.300;2023-06-26T03:23:05;7.65;;;6.32;;
43986;SDS011;29650;47.378;8.300;2023-06-26T03:25:33;10.15;;;6.15;;
43986;SDS011;29650;47.378;8.300;2023-06-26T03:28:00;9.93;;;6.40;;
43986;SDS011;29650;47.378;8.300;2023-06-26T03:30:27;6.88;;;5.57;;
43986;SDS011;29650;47.378;8.300;2023-06-26T03:32:54;7.65;;;6.00;;
43986;SDS011;29650;47.378;8.300;2023-06-26T03:35:21;9.27;;;6.00;;
43986;SDS011;29650;47.378;8.300;2023-06-26T03:37:48;9.55;;;5.50;;
43986;SDS011;29650;47.378;8.300;2023-06-26T03:40:15;7.90;;;6.20;;
43986;SDS011;29650;47.378;8.300;2023-06-26T03:42:44;7.07;;;5.50;;
43986;SDS011;29650;47.378;8.300;2023-06-26T03:45:12;8.80;;;5.57;;
43986;SDS011;29650;47.378;8.300;2023-06-26T03:47:39;11.43;;;6.65;;
43986;SDS011;29650;47.378;8.300;2023-06-26T03:50:06;9.85;;;6.07;;
43986;SDS011;29650;47.378;8.300;2023-06-26T03:52:33;9.70;;;6.05;;
43986;SDS011;29650;47.378;8.300;2023-06-26T03:55:00;14.07;;;7.38;;
43986;SDS011;29650;47.378;8.300;2023-06-26T03:57:28;8.23;;;6.32;;
43986;SDS011;29650;47.378;8.300;2023-06-26T03:59:56;9.43;;;5.68;;
43986;SDS011;29650;47.378;8.300;2023-06-26T04:02:23;11.38;;;6.63;;
43986;SDS011;29650;47.378;8.300;2023-06-26T04:04:50;8.43;;;5.88;;
43986;SDS011;29650;47.378;8.300;2023-06-26T04:07:17;8.00;;;6.50;;
43986;SDS011;29650;47.378;8.300;2023-06-26T04:09:44;11.35;;;6.15;;
43986;SDS011;29650;47.378;8.300;2023-06-26T04:12:11;9.23;;;6.38;;
43986;SDS011;29650;47.378;8.300;2023-06-26T04:14:38;7.15;;;6.45;;
43986;SDS011;29650;47.378;8.300;2023-06-26T04:17:06;7.93;;;6.20;;
43986;SDS011;29650;47.378;8.300;2023-06-26T04:19:33;10.02;;;6.30;;
43986;SDS011;29650;47.378;8.300;2023-06-26T04:22:01;7.45;;;6.22;;
43986;SDS011;29650;47.378;8.300;2023-06-26T04:24:28;11.23;;;5.55;;
43986;SDS011;29650;47.378;8.300;2023-06-26T04:26:55;12.57;;;6.07;;
43986;SDS011;29650;47.378;8.300;2023-06-26T04:29:22;7.57;;;5.82;;
43986;SDS011;29650;47.378;8.300;2023-06-26T04:31:50;8.95;;;6.05;;
43986;SDS011;29650;47.378;8.300;2023-06-26T04:34:18;9.13;;;5.95;;
43986;SDS011;29650;47.378;8.300;2023-06-26T04:36:45;9.48;;;6.00;;
43986;SDS011;29650;47.378;8.300;2023-06-26T04:39:13;10.63;;;5.80;;
43986;SDS011;29650;47.378;8.300;2023-06-26T04:41:40;8.05;;;6.43;;
43986;SDS011;29650;47.378;8.300;2023-06-26T04:44:07;8.50;;;5.82;;
43986;SDS011;29650;47.378;8.300;2023-06-26T04:46:34;8.05;;;6.30;;
43986;SDS011;29650;47.378;8.300;2023-06-26T04:49:06;9.95;;;5.50;;
43986;SDS011;29650;47.378;8.300;2023-06-26T04:51:34;8.82;;;6.72;;
43986;SDS011;29650;47.378;8.300;2023-06-26T04:54:05;11.57;;;7.22;;
43986;SDS011;29650;47.378;8.300;2023-06-26T04:56:33;10.98;;;7.65;;
43986;SDS011;29650;47.378;8.300;2023-06-26T04:59:00;12.38;;;6.57;;
43986;SDS011;29650;47.378;8.300;2023-06-26T05:01:27;10.55;;;6.47;;
43986;SDS011;29650;47.378;8.300;2023-06-26T05:03:54;12.55;;;7.20;;
43986;SDS011;29650;47.378;8.300;2023-06-26T05:06:22;9.25;;;6.10;;
43986;SDS011;29650;47.378;8.300;2023-06-26T05:08:50;9.65;;;6.70;;
43986;SDS011;29650;47.378;8.300;2023-06-26T05:11:17;11.35;;;6.50;;
43986;SDS011;29650;47.378;8.300;2023-06-26T05:13:44;14.55;;;6.72;;
43986;SDS011;29650;47.378;8.300;2023-06-26T05:16:11;12.93;;;6.57;;
43986;SDS011;29650;47.378;8.300;2023-06-26T05:18:38;14.27;;;6.88;;
43986;SDS011;29650;47.378;8.300;2023-06-26T05:21:06;16.02;;;6.82;;
43986;SDS011;29650;47.378;8.300;2023-06-26T05:23:33;8.60;;;6.55;;
43986;SDS011;29650;47.378;8.300;2023-06-26T05:26:02;8.80;;;6.05;;
43986;SDS011;29650;47.378;8.300;2023-06-26T05:28:30;8.77;;;7.03;;
43986;SDS011;29650;47.378;8.300;2023-06-26T05:30:58;8.85;;;6.90;;
43986;SDS011;29650;47.378;8.300;2023-06-26T05:33:26;9.90;;;6.72;;
43986;SDS011;29650;47.378;8.300;2023-06-26T05:35:53;12.18;;;6.97;;
43986;SDS011;29650;47.378;8.300;2023-06-26T05:38:21;10.30;;;6.85;;
43986;SDS011;29650;47.378;8.300;2023-06-26T05:40:49;7.55;;;6.18;;
43986;SDS011;29650;47.378;8.300;2023-06-26T05:43:18;10.93;;;6.90;;
43986;SDS011;29650;47.378;8.300;2023-06-26T05:45:46;13.52;;;7.30;;
43986;SDS011;29650;47.378;8.300;2023-06-26T05:48:14;9.05;;;7.25;;
43986;SDS011;29650;47.378;8.300;2023-06-26T05:50:42;9.88;;;6.78;;
43986;SDS011;29650;47.378;8.300;2023-06-26T05:53:10;8.38;;;7.40;;
43986;SDS011;29650;47.378;8.300;2023-06-26T05:55:37;8.93;;;7.13;;
43986;SDS011;29650;47.378;8.300;2023-06-26T05:58:07;9.88;;;7.18;;
43986;SDS011;29650;47.378;8.300;2023-06-26T06:00:38;10.85;;;7.97;;
43986;SDS011;29650;47.378;8.300;2023-06-26T06:03:06;9.30;;;8.15;;
43986;SDS011;29650;47.378;8.300;2023-06-26T06:05:34;9.70;;;6.97;;
43986;SDS011;29650;47.378;8.300;2023-06-26T06:08:02;12.10;;;8.60;;
43986;SDS011;29650;47.378;8.300;2023-06-26T06:10:29;9.18;;;7.80;;
43986;SDS011;29650;47.378;8.300;2023-06-26T06:12:56;14.20;;;8.63;;
43986;SDS011;29650;47.378;8.300;2023-06-26T06:15:23;11.05;;;8.80;;
43986;SDS011;29650;47.378;8.300;2023-06-26T06:17:51;12.23;;;8.10;;
43986;SDS011;29650;47.378;8.300;2023-06-26T06:20:18;13.82;;;8.93;;
43986;SDS011;29650;47.378;8.300;2023-06-26T06:22:46;11.68;;;8.45;;
43986;SDS011;29650;47.378;8.300;2023-06-26T06:25:14;10.07;;;7.50;;
43986;SDS011;29650;47.378;8.300;2023-06-26T06:27:41;13.60;;;7.50;;
43986;SDS011;29650;47.378;8.300;2023-06-26T06:30:09;8.68;;;6.22;;
43986;SDS011;29650;47.378;8.300;2023-06-26T06:32:36;11.40;;;7.75;;
43986;SDS011;29650;47.378;8.300;2023-06-26T06:35:05;9.30;;;7.43;;
43986;SDS011;29650;47.378;8.300;2023-06-26T06:37:34;10.27;;;7.30;;
43986;SDS011;29650;47.378;8.300;2023-06-26T06:40:02;10.15;;;8.25;;
43986;SDS011;29650;47.378;8.300;2023-06-26T06:42:31;8.93;;;7.27;;
43986;SDS011;29650;47.378;8.300;2023-06-26T06:44:58;11.40;;;7.47;;
43986;SDS011;29650;47.378;8.300;2023-06-26T06:47:25;8.68;;;6.07;;
43986;SDS011;29650;47.378;8.300;2023-06-26T06:49:52;11.00;;;7.30;;
43986;SDS011;29650;47.378;8.300;2023-06-26T06:52:20;11.20;;;7.30;;
43986;SDS011;29650;47.378;8.300;2023-06-26T06:54:51;12.17;;;6.97;;
43986;SDS011;29650;47.378;8.300;2023-06-26T06:57:19;7.22;;;6.20;;
43986;SDS011;29650;47.378;8.300;2023-06-26T06:59:46;9.93;;;6.90;;
43986;SDS011;29650;47.378;8.300;2023-06-26T07:02:13;9.07;;;6.90;;
43986;SDS011;29650;47.378;8.300;2023-06-26T07:04:40;9.43;;;6.85;;
43986;SDS011;29650;47.378;8.300;2023-06-26T07:07:07;8.95;;;7.25;;
43986;SDS011;29650;47.378;8.300;2023-06-26T07:09:36;10.02;;;7.15;;
43986;SDS011;29650;47.378;8.300;2023-06-26T07:12:03;7.83;;;6.23;;
43986;SDS011;29650;47.378;8.300;2023-06-26T07:14:31;8.48;;;7.05;;
43986;SDS011;29650;47.378;8.300;2023-06-26T07:16:58;9.18;;;7.40;;
43986;SDS011;29650;47.378;8.300;2023-06-26T07:19:24;11.57;;;7.35;;
43986;SDS011;29650;47.378;8.300;2023-06-26T07:21:52;8.70;;;6.40;;
43986;SDS011;29650;47.378;8.300;2023-06-26T07:24:19;8.00;;;6.18;;
43986;SDS011;29650;47.378;8.300;2023-06-26T07:26:48;17.48;;;6.68;;
43986;SDS011;29650;47.378;8.300;2023-06-26T07:29:14;8.60;;;6.43;;
43986;SDS011;29650;47.378;8.300;2023-06-26T07:31:41;9.23;;;7.25;;
43986;SDS011;29650;47.378;8.300;2023-06-26T07:34:10;8.37;;;7.23;;
43986;SDS011;29650;47.378;8.300;2023-06-26T07:36:37;9.55;;;7.15;;
43986;SDS011;29650;47.378;8.300;2023-06-26T07:39:04;9.95;;;7.63;;
43986;SDS011;29650;47.378;8.300;2023-06-26T07:41:31;9.35;;;6.95;;
43986;SDS011;29650;47.378;8.300;2023-06-26T07:43:59;11.35;;;6.57;;
43986;SDS011;29650;47.378;8.300;2023-06-26T07:46:26;7.28;;;6.28;;
43986;SDS011;29650;47.378;8.300;2023-06-26T07:48:53;7.95;;;6.68;;
43986;SDS011;29650;47.378;8.300;2023-06-26T07:51:20;7.38;;;5.97;;
43986;SDS011;29650;47.378;8.300;2023-06-26T07:53:47;7.30;;;5.75;;
43986;SDS011;29650;47.378;8.300;2023-06-26T07:56:14;9.90;;;5.90;;
43986;SDS011;29650;47.378;8.300;2023-06-26T07:58:41;8.18;;;5.70;;
43986;SDS011;29650;47.378;8.300;2023-06-26T08:01:09;8.20;;;6.15;;
43986;SDS011;29650;47.378;8.300;2023-06-26T08:03:36;7.95;;;5.47;;
43986;SDS011;29650;47.378;8.300;2023-06-26T08:06:03;13.15;;;5.28;;
43986;SDS011;29650;47.378;8.300;2023-06-26T08:08:30;20.65;;;6.50;;
43986;SDS011;29650;47.378;8.300;2023-06-26T08:10:57;13.13;;;5.35;;
43986;SDS011;29650;47.378;8.300;2023-06-26T08:13:24;7.70;;;4.90;;
43986;SDS011;29650;47.378;8.300;2023-06-26T08:15:52;6.93;;;5.40;;
43986;SDS011;29650;47.378;8.300;2023-06-26T08:18:21;7.18;;;5.10;;
43986;SDS011;29650;47.378;8.300;2023-06-26T08:20:48;6.25;;;5.05;;
43986;SDS011;29650;47.378;8.300;2023-06-26T08:23:15;8.55;;;5.53;;
43986;SDS011;29650;47.378;8.300;2023-06-26T08:25:42;8.32;;;5.10;;
43986;SDS011;29650;47.378;8.300;2023-06-26T08:28:09;5.45;;;4.65;;
43986;SDS011;29650;47.378;8.300;2023-06-26T08:30:36;7.43;;;5.10;;
43986;SDS011;29650;47.378;8.300;2023-06-26T08:33:03;9.07;;;4.80;;
43986;SDS011;29650;47.378;8.300;2023-06-26T08:35:37;8.32;;;5.43;;
43986;SDS011;29650;47.378;8.300;2023-06-26T08:38:04;5.80;;;4.80;;
43986;SDS011;29650;47.378;8.300;2023-06-26T08:40:31;7.57;;;5.00;;
43986;SDS011;29650;47.378;8.300;2023-06-26T08:42:58;7.32;;;5.18;;
43986;SDS011;29650;47.378;8.300;2023-06-26T08:45:25;5.68;;;4.75;;
43986;SDS011;29650;47.378;8.300;2023-06-26T08:47:53;8.30;;;4.55;;
43986;SDS011;29650;47.378;8.300;2023-06-26T08:50:24;9.32;;;5.18;;
43986;SDS011;29650;47.378;8.300;2023-06-26T08:52:57;6.28;;;4.97;;
43986;SDS011;29650;47.378;8.300;2023-06-26T08:55:31;7.95;;;5.38;;
43986;SDS011;29650;47.378;8.300;2023-06-26T08:58:01;6.80;;;5.50;;
43986;SDS011;29650;47.378;8.300;2023-06-26T09:00:29;6.70;;;4.68;;
43986;SDS011;29650;47.378;8.300;2023-06-26T09:02:56;8.63;;;4.60;;
43986;SDS011;29650;47.378;8.300;2023-06-26T09:05:24;8.77;;;5.32;;
43986;SDS011;29650;47.378;8.300;2023-06-26T09:07:53;6.88;;;5.00;;
43986;SDS011;29650;47.378;8.300;2023-06-26T09:10:22;7.13;;;4.60;;
43986;SDS011;29650;47.378;8.300;2023-06-26T09:12:48;7.28;;;4.32;;
43986;SDS011;29650;47.378;8.300;2023-06-26T09:15:19;6.53;;;4.55;;
43986;SDS011;29650;47.378;8.300;2023-06-26T09:17:47;5.70;;;4.47;;
43986;SDS011;29650;47.378;8.300;2023-06-26T09:20:14;7.45;;;4.97;;
43986;SDS011;29650;47.378;8.300;2023-06-26T09:22:42;7.10;;;4.53;;
43986;SDS011;29650;47.378;8.300;2023-06-26T09:25:13;7.45;;;4.68;;
43986;SDS011;29650;47.378;8.300;2023-06-26T09:27:42;6.13;;;5.07;;
43986;SDS011;29650;47.378;8.300;2023-06-26T09:30:10;5.63;;;4.93;;
43986;SDS011;29650;47.378;8.300;2023-06-26T09:32:37;5.88;;;4.78;;
43986;SDS011;29650;47.378;8.300;2023-06-26T09:35:04;6.40;;;4.40;;
43986;SDS011;29650;47.378;8.300;2023-06-26T09:37:31;6.82;;;4.60;;
43986;SDS011;29650;47.378;8.300;2023-06-26T09:40:00;6.37;;;5.27;;
43986;SDS011;29650;47.378;8.300;2023-06-26T09:42:28;7.88;;;4.95;;
43986;SDS011;29650;47.378;8.300;2023-06-26T09:44:57;6.78;;;4.60;;
43986;SDS011;29650;47.378;8.300;2023-06-26T09:47:24;9.33;;;4.57;;
43986;SDS011;29650;47.378;8.300;2023-06-26T09:49:51;8.85;;;4.60;;
43986;SDS011;29650;47.378;8.300;2023-06-26T09:52:20;6.55;;;4.40;;
43986;SDS011;29650;47.378;8.300;2023-06-26T09:54:47;6.45;;;4.78;;
43986;SDS011;29650;47.378;8.300;2023-06-26T09:57:15;10.85;;;4.55;;
43986;SDS011;29650;47.378;8.300;2023-06-26T09:59:43;5.90;;;5.10;;
43986;SDS011;29650;47.378;8.300;2023-06-26T10:02:12;8.35;;;5.22;;
43986;SDS011;29650;47.378;8.300;2023-06-26T10:04:39;5.78;;;4.97;;
43986;SDS011;29650;47.378;8.300;2023-06-26T10:07:07;15.10;;;5.13;;
43986;SDS011;29650;47.378;8.300;2023-06-26T10:09:37;5.00;;;4.50;;
43986;SDS011;29650;47.378;8.300;2023-06-26T10:12:09;6.55;;;4.30;;
43986;SDS011;29650;47.378;8.300;2023-06-26T10:14:41;6.13;;;4.53;;
43986;SDS011;29650;47.378;8.300;2023-06-26T10:17:09;7.22;;;4.80;;
43986;SDS011;29650;47.378;8.300;2023-06-26T10:19:41;8.93;;;4.95;;
43986;SDS011;29650;47.378;8.300;2023-06-26T10:22:10;8.88;;;5.38;;
43986;SDS011;29650;47.378;8.300;2023-06-26T10:24:39;6.50;;;4.93;;
43986;SDS011;29650;47.378;8.300;2023-06-26T10:27:13;9.13;;;5.10;;
43986;SDS011;29650;47.378;8.300;2023-06-26T10:29:42;7.18;;;4.85;;
43986;SDS011;29650;47.378;8.300;2023-06-26T10:32:12;5.80;;;4.20;;
43986;SDS011;29650;47.378;8.300;2023-06-26T10:34:41;6.75;;;4.82;;
43986;SDS011;29650;47.378;8.300;2023-06-26T10:37:08;6.60;;;5.10;;
43986;SDS011;29650;47.378;8.300;2023-06-26T10:39:48;8.02;;;5.43;;
43986;SDS011;29650;47.378;8.300;2023-06-26T10:42:16;6.22;;;4.78;;
43986;SDS011;29650;47.378;8.300;2023-06-26T10:44:44;6.00;;;5.20;;
43986;SDS011;29650;47.378;8.300;2023-06-26T10:47:12;6.18;;;4.60;;
43986;SDS011;29650;47.378;8.300;2023-06-26T10:49:56;9.65;;;5.22;;
43986;SDS011;29650;47.378;8.300;2023-06-26T10:52:42;7.88;;;5.80;;
43986;SDS011;29650;47.378;8.300;2023-06-26T10:55:09;6.60;;;4.68;;
43986;SDS011;29650;47.378;8.300;2023-06-26T10:57:36;6.65;;;5.03;;
43986;SDS011;29650;47.378;8.300;2023-06-26T11:00:09;6.35;;;4.97;;
43986;SDS011;29650;47.378;8.300;2023-06-26T11:02:47;5.45;;;4.82;;
43986;SDS011;29650;47.378;8.300;2023-06-26T11:05:24;8.82;;;4.82;;
43986;SDS011;29650;47.378;8.300;2023-06-26T11:08:05;8.27;;;5.10;;
43986;SDS011;29650;47.378;8.300;2023-06-26T11:10:48;7.05;;;5.07;;
43986;SDS011;29650;47.378;8.300;2023-06-26T11:13:17;6.32;;;5.63;;
43986;SDS011;29650;47.378;8.300;2023-06-26T11:15:45;6.10;;;5.00;;
43986;SDS011;29650;47.378;8.300;2023-06-26T11:18:12;9.27;;;5.78;;
43986;SDS011;29650;47.378;8.300;2023-06-26T11:20:40;7.60;;;5.82;;
43986;SDS011;29650;47.378;8.300;2023-06-26T11:23:08;8.67;;;6.23;;
43986;SDS011;29650;47.378;8.300;2023-06-26T11:25:35;8.68;;;6.10;;
43986;SDS011;29650;47.378;8.300;2023-06-26T11:28:03;8.88;;;5.95;;
43986;SDS011;29650;47.378;8.300;2023-06-26T11:30:31;10.68;;;5.80;;
43986;SDS011;29650;47.378;8.300;2023-06-26T11:33:05;13.02;;;5.97;;
43986;SDS011;29650;47.378;8.300;2023-06-26T11:35:32;10.27;;;5.75;;
43986;SDS011;29650;47.378;8.300;2023-06-26T11:38:01;10.43;;;5.82;;
43986;SDS011;29650;47.378;8.300;2023-06-26T11:40:30;10.88;;;6.30;;
43986;SDS011;29650;47.378;8.300;2023-06-26T11:42:59;8.27;;;6.05;;
43986;SDS011;29650;47.378;8.300;2023-06-26T11:45:27;11.73;;;6.30;;
43986;SDS011;29650;47.378;8.300;2023-06-26T11:47:55;11.57;;;6.07;;
43986;SDS011;29650;47.378;8.300;2023-06-26T11:50:22;9.57;;;5.18;;
43986;SDS011;29650;47.378;8.300;2023-06-26T11:52:53;6.82;;;5.68;;
43986;SDS011;29650;47.378;8.300;2023-06-26T11:55:22;10.85;;;5.78;;
43986;SDS011;29650;47.378;8.300;2023-06-26T11:57:49;7.20;;;5.65;;
43986;SDS011;29650;47.378;8.300;2023-06-26T12:00:17;14.00;;;6.03;;
43986;SDS011;29650;47.378;8.300;2023-06-26T12:02:44;8.82;;;5.53;;
43986;SDS011;29650;47.378;8.300;2023-06-26T12:05:12;7.68;;;5.43;;
43986;SDS011;29650;47.378;8.300;2023-06-26T12:07:40;12.93;;;6.00;;
43986;SDS011;29650;47.378;8.300;2023-06-26T12:10:09;8.83;;;6.17;;
43986;SDS011;29650;47.378;8.300;2023-06-26T12:12:39;7.88;;;5.22;;
43986;SDS011;29650;47.378;8.300;2023-06-26T12:15:08;9.70;;;5.47;;
43986;SDS011;29650;47.378;8.300;2023-06-26T12:17:37;8.40;;;5.82;;
43986;SDS011;29650;47.378;8.300;2023-06-26T12:20:05;9.82;;;5.85;;
43986;SDS011;29650;47.378;8.300;2023-06-26T12:22:45;11.40;;;5.43;;
43986;SDS011;29650;47.378;8.300;2023-06-26T12:25:13;7.43;;;5.13;;
43986;SDS011;29650;47.378;8.300;2023-06-26T12:27:44;8.13;;;5.45;;
43986;SDS011;29650;47.378;8.300;2023-06-26T12:30:11;6.40;;;5.07;;
43986;SDS011;29650;47.378;8.300;2023-06-26T12:32:39;15.63;;;5.80;;
43986;SDS011;29650;47.378;8.300;2023-06-26T12:35:06;9.18;;;5.70;;
43986;SDS011;29650;47.378;8.300;2023-06-26T12:37:36;5.90;;;5.05;;
43986;SDS011;29650;47.378;8.300;2023-06-26T12:40:09;7.28;;;5.25;;
43986;SDS011;29650;47.378;8.300;2023-06-26T12:42:44;7.63;;;5.50;;
43986;SDS011;29650;47.378;8.300;2023-06-26T12:47:39;9.10;;;4.90;;
43986;SDS011;29650;47.378;8.300;2023-06-26T12:50:07;10.60;;;5.00;;
43986;SDS011;29650;47.378;8.300;2023-06-26T12:52:34;6.22;;;5.22;;
43986;SDS011;29650;47.378;8.300;2023-06-26T12:55:01;6.35;;;5.22;;
43986;SDS011;29650;47.378;8.300;2023-06-26T12:57:28;10.27;;;5.53;;
43986;SDS011;29650;47.378;8.300;2023-06-26T12:59:57;9.98;;;4.90;;
43986;SDS011;29650;47.378;8.300;2023-06-26T13:02:24;7.63;;;5.18;;
43986;SDS011;29650;47.378;8.300;2023-06-26T13:04:51;7.88;;;4.70;;
43986;SDS011;29650;47.378;8.300;2023-06-26T13:07:18;6.75;;;5.07;;
43986;SDS011;29650;47.378;8.300;2023-06-26T13:09:45;8.05;;;4.90;;
43986;SDS011;29650;47.378;8.300;2023-06-26T13:12:13;9.13;;;4.72;;
43986;SDS011;29650;47.378;8.300;2023-06-26T13:14:40;6.55;;;4.85;;
43986;SDS011;29650;47.378;8.300;2023-06-26T13:17:08;9.48;;;5.03;;
43986;SDS011;29650;47.378;8.300;2023-06-26T13:19:37;7.65;;;4.90;;
43986;SDS011;29650;47.378;8.300;2023-06-26T13:22:04;6.00;;;4.82;;
43986;SDS011;29650;47.378;8.300;2023-06-26T13:24:31;5.22;;;4.50;;
43986;SDS011;29650;47.378;8.300;2023-06-26T13:26:58;8.02;;;4.82;;
43986;SDS011;29650;47.378;8.300;2023-06-26T13:29:26;7.82;;;4.38;;
43986;SDS011;29650;47.378;8.300;2023-06-26T13:31:53;7.40;;;4.53;;
43986;SDS011;29650;47.378;8.300;2023-06-26T13:34:23;8.43;;;4.50;;
43986;SDS011;29650;47.378;8.300;2023-06-26T13:36:52;9.43;;;5.18;;
43986;SDS011;29650;47.378;8.300;2023-06-26T13:39:19;8.00;;;4.57;;
43986;SDS011;29650;47.378;8.300;2023-06-26T13:41:46;9.88;;;4.65;;
43986;SDS011;29650;47.378;8.300;2023-06-26T13:44:13;6.50;;;4.68;;
43986;SDS011;29650;47.378;8.300;2023-06-26T13:46:40;6.28;;;4.70;;
43986;SDS011;29650;47.378;8.300;2023-06-26T13:49:07;7.43;;;4.97;;
43986;SDS011;29650;47.378;8.300;2023-06-26T13:51:35;9.35;;;4.85;;
43986;SDS011;29650;47.378;8.300;2023-06-26T13:54:03;6.97;;;4.43;;
43986;SDS011;29650;47.378;8.300;2023-06-26T13:56:29;7.07;;;4.70;;
43986;SDS011;29650;47.378;8.300;2023-06-26T13:58:56;13.73;;;4.90;;
43986;SDS011;29650;47.378;8.300;2023-06-26T14:01:24;5.55;;;4.95;;
43986;SDS011;29650;47.378;8.300;2023-06-26T14:03:51;5.50;;;3.90;;
43986;SDS011;29650;47.378;8.300;2023-06-26T14:06:18;8.80;;;4.70;;
43986;SDS011;29650;47.378;8.300;2023-06-26T14:08:46;8.15;;;4.05;;
43986;SDS011;29650;47.378;8.300;2023-06-26T14:11:14;5.45;;;3.97;;
43986;SDS011;29650;47.378;8.300;2023-06-26T14:13:41;6.20;;;3.90;;
43986;SDS011;29650;47.378;8.300;2023-06-26T14:16:08;7.80;;;4.22;;
43986;SDS011;29650;47.378;8.300;2023-06-26T14:18:35;7.65;;;4.78;;
43986;SDS011;29650;47.378;8.300;2023-06-26T14:21:04;8.27;;;4.53;;
43986;SDS011;29650;47.378;8.300;2023-06-26T14:23:31;7.05;;;4.47;;
43986;SDS011;29650;47.378;8.300;2023-06-26T14:25:59;8.32;;;4.53;;
43986;SDS011;29650;47.378;8.300;2023-06-26T14:28:26;7.00;;;4.30;;
43986;SDS011;29650;47.378;8.300;2023-06-26T14:30:52;10.75;;;4.60;;
43986;SDS011;29650;47.378;8.300;2023-06-26T14:33:19;7.07;;;4.90;;
43986;SDS011;29650;47.378;8.300;2023-06-26T14:35:46;5.43;;;4.28;;
43986;SDS011;29650;47.378;8.300;2023-06-26T14:38:13;6.90;;;4.32;;
43986;SDS011;29650;47.378;8.300;2023-06-26T14:40:40;6.78;;;4.97;;
43986;SDS011;29650;47.378;8.300;2023-06-26T14:43:08;14.85;;;4.47;;
43986;SDS011;29650;47.378;8.300;2023-06-26T14:45:36;5.47;;;4.32;;
43986;SDS011;29650;47.378;8.300;2023-06-26T14:48:03;8.07;;;3.95;;
43986;SDS011;29650;47.378;8.300;2023-06-26T14:50:30;5.10;;;4.45;;
43986;SDS011;29650;47.378;8.300;2023-06-26T14:52:57;6.18;;;4.05;;